Time;durP1;ratioP1;P1;durP2;ratioP2;P2;SDS_P1;SDS_P2;PMS_P1;PMS_P2;Temp;Humidity;BMP_temperature;BMP_pressure;BME280_temperature;BME280_humidity;BME280_pressure;Samples;Min_cycle;Max_cycle;Signal;HPM_P1;HPM_P2
2021/07/23 00:01:54;;;;;;;15.52;9.07;;;;;;;;;;6353423;22;20050;-84
2021/07/23 00:04:20;;;;;;;16.88;9.40;;;;;;;;;;6355855;22;20049;-84
2021/07/23 00:06:49;;;;;;;12.80;10.10;;;;;;;;;;6354395;22;20069;-84
2021/07/23 00:09:16;;;;;;;16.20;8.88;;;;;;;;;;6356219;22;20019;-84
2021/07/23 00:11:42;;;;;;;13.75;8.73;;;;;;;;;;6333001;22;20031;-85
2021/07/23 00:14:15;;;;;;;16.02;9.77;;;;;;;;;;6334052;22;20062;-84
2021/07/23 00:16:42;;;;;;;16.30;9.02;;;;;;;;;;6325424;22;20027;-84
2021/07/23 00:19:08;;;;;;;15.30;10.70;;;;;;;;;;6320628;22;20381;-84
2021/07/23 00:21:35;;;;;;;15.57;9.25;;;;;;;;;;6332377;22;20035;-84
2021/07/23 00:24:01;;;;;;;18.40;9.43;;;;;;;;;;6332158;22;20030;-85
2021/07/23 00:26:35;;;;;;;15.18;8.98;;;;;;;;;;6347949;22;20037;-85
2021/07/23 00:29:05;;;;;;;17.50;9.70;;;;;;;;;;6321735;22;20291;-83
2021/07/23 00:31:32;;;;;;;16.77;10.02;;;;;;;;;;6319725;22;20088;-83
2021/07/23 00:33:59;;;;;;;16.50;9.95;;;;;;;;;;6345809;22;20046;-83
2021/07/23 00:36:27;;;;;;;12.52;8.95;;;;;;;;;;6318738;22;20094;-83
2021/07/23 00:38:54;;;;;;;13.15;8.55;;;;;;;;;;6317724;22;20050;-83
2021/07/23 00:41:21;;;;;;;12.82;8.80;;;;;;;;;;6357845;22;20165;-82
2021/07/23 00:43:47;;;;;;;12.82;8.50;;;;;;;;;;6335558;22;20015;-83
2021/07/23 00:46:14;;;;;;;12.60;9.07;;;;;;;;;;6362051;22;20054;-83
2021/07/23 00:48:46;;;;;;;18.75;9.68;;;;;;;;;;6362476;22;20062;-83
2021/07/23 00:51:13;;;;;;;18.33;10.13;;;;;;;;;;6330993;22;20034;-83
2021/07/23 00:53:58;;;;;;;14.52;8.98;;;;;;;;;;6348035;22;20027;-83
2021/07/23 00:56:26;;;;;;;13.65;9.52;;;;;;;;;;6348016;22;20023;-83
2021/07/23 00:58:57;;;;;;;19.90;8.90;;;;;;;;;;6321373;22;20025;-84
2021/07/23 01:01:24;;;;;;;19.80;9.05;;;;;;;;;;6359446;22;20014;-82
2021/07/23 01:03:53;;;;;;;14.55;8.23;;;;;;;;;;6336959;22;20060;-83
2021/07/23 01:06:20;;;;;;;11.02;7.43;;;;;;;;;;6335035;22;20010;-82
2021/07/23 01:08:53;;;;;;;11.48;7.70;;;;;;;;;;6362480;22;20015;-83
2021/07/23 01:11:21;;;;;;;14.55;8.98;;;;;;;;;;6334205;22;20076;-83
2021/07/23 01:13:57;;;;;;;20.10;9.52;;;;;;;;;;6327298;22;20088;-83
2021/07/23 01:16:24;;;;;;;15.60;9.18;;;;;;;;;;6347718;22;20201;-83
2021/07/23 01:18:54;;;;;;;14.45;9.73;;;;;;;;;;6320332;22;20011;-83
2021/07/23 01:21:24;;;;;;;20.63;9.68;;;;;;;;;;6347695;22;20023;-84
2021/07/23 01:23:52;;;;;;;15.52;9.73;;;;;;;;;;6345315;22;20072;-83
2021/07/23 01:26:21;;;;;;;13.77;9.15;;;;;;;;;;6320162;22;20023;-83
2021/07/23 01:28:48;;;;;;;14.93;9.23;;;;;;;;;;6344856;22;20018;-83
2021/07/23 01:31:14;;;;;;;11.57;7.85;;;;;;;;;;6311685;22;20023;-83
2021/07/23 01:33:43;;;;;;;15.30;8.43;;;;;;;;;;6311583;22;20084;-83
2021/07/23 01:36:10;;;;;;;16.60;8.77;;;;;;;;;;6312165;22;20479;-83
2021/07/23 01:38:47;;;;;;;14.27;9.23;;;;;;;;;;6312645;22;20038;-83
2021/07/23 01:41:13;;;;;;;13.90;9.25;;;;;;;;;;6311346;22;20064;-83
2021/07/23 01:43:40;;;;;;;16.90;8.77;;;;;;;;;;6312884;22;20033;-83
2021/07/23 01:46:07;;;;;;;12.95;7.95;;;;;;;;;;6312580;22;20154;-83
2021/07/23 01:48:33;;;;;;;12.27;8.00;;;;;;;;;;6315850;22;20092;-83
2021/07/23 01:51:00;;;;;;;14.32;8.13;;;;;;;;;;6315995;22;20079;-84
2021/07/23 01:53:29;;;;;;;13.30;7.90;;;;;;;;;;6313824;22;20385;-83
2021/07/23 01:55:56;;;;;;;10.50;6.68;;;;;;;;;;6314686;22;20076;-83
2021/07/23 01:58:22;;;;;;;10.07;7.25;;;;;;;;;;6321152;22;20023;-83
2021/07/23 02:00:49;;;;;;;10.68;6.70;;;;;;;;;;6322381;22;20457;-83
2021/07/23 02:03:16;;;;;;;13.63;8.00;;;;;;;;;;6321875;22;20019;-84
2021/07/23 02:05:42;;;;;;;13.02;7.13;;;;;;;;;;6321780;22;20035;-83
2021/07/23 02:08:09;;;;;;;11.02;6.75;;;;;;;;;;6318760;22;20072;-83
2021/07/23 02:10:39;;;;;;;13.77;7.53;;;;;;;;;;6314058;22;20023;-83
2021/07/23 02:13:05;;;;;;;15.15;7.55;;;;;;;;;;6315027;22;20279;-83
2021/07/23 02:15:32;;;;;;;10.57;7.38;;;;;;;;;;6314398;22;20042;-84
2021/07/23 02:17:59;;;;;;;17.38;8.18;;;;;;;;;;6310868;22;20078;-83
2021/07/23 02:20:25;;;;;;;16.63;7.28;;;;;;;;;;6312652;22;20031;-83
2021/07/23 02:22:52;;;;;;;19.00;8.85;;;;;;;;;;6313835;22;20031;-83
2021/07/23 02:25:18;;;;;;;15.75;8.02;;;;;;;;;;6313077;22;20054;-83
2021/07/23 02:28:01;;;;;;;12.77;7.93;;;;;;;;;;6310666;22;20046;-83
2021/07/23 02:30:28;;;;;;;17.42;8.52;;;;;;;;;;6312394;22;20102;-84
2021/07/23 02:32:55;;;;;;;11.20;7.95;;;;;;;;;;6311461;22;20023;-86
2021/07/23 02:35:21;;;;;;;16.88;8.63;;;;;;;;;;6311115;22;20019;-84
2021/07/23 02:37:48;;;;;;;14.55;8.55;;;;;;;;;;6311629;22;20367;-84
2021/07/23 02:40:14;;;;;;;14.15;8.93;;;;;;;;;;6310060;22;20027;-84
2021/07/23 02:42:41;;;;;;;15.43;9.10;;;;;;;;;;6311670;22;20098;-84
2021/07/23 02:45:08;;;;;;;13.43;9.60;;;;;;;;;;6315131;22;20071;-85
2021/07/23 02:47:35;;;;;;;15.32;9.68;;;;;;;;;;6325653;22;20047;-85
2021/07/23 02:50:02;;;;;;;16.40;10.35;;;;;;;;;;6324590;22;20072;-84
2021/07/23 02:52:29;;;;;;;19.75;10.48;;;;;;;;;;6318047;22;20019;-84
2021/07/23 02:54:55;;;;;;;18.95;10.38;;;;;;;;;;6312805;22;20351;-85
2021/07/23 02:57:22;;;;;;;16.67;10.48;;;;;;;;;;6313077;22;20037;-85
2021/07/23 02:59:48;;;;;;;14.65;10.05;;;;;;;;;;6311095;22;20030;-84
2021/07/23 03:02:15;;;;;;;15.07;10.07;;;;;;;;;;6311742;22;20027;-84
2021/07/23 03:04:42;;;;;;;16.55;10.50;;;;;;;;;;6329381;22;20102;-84
2021/07/23 03:07:09;;;;;;;18.70;11.65;;;;;;;;;;6325877;22;20170;-85
2021/07/23 03:09:35;;;;;;;19.17;11.65;;;;;;;;;;6313838;22;20082;-85
2021/07/23 03:12:02;;;;;;;17.95;11.32;;;;;;;;;;6311504;22;20023;-84
2021/07/23 03:14:30;;;;;;;17.08;10.30;;;;;;;;;;6326863;22;20038;-85
2021/07/23 03:16:57;;;;;;;17.50;11.93;;;;;;;;;;6321097;22;20023;-84
2021/07/23 03:19:24;;;;;;;23.08;11.70;;;;;;;;;;6313804;22;20033;-85
2021/07/23 03:21:54;;;;;;;23.52;11.82;;;;;;;;;;6311857;22;20031;-84
2021/07/23 03:24:21;;;;;;;17.73;11.38;;;;;;;;;;6311534;22;20171;-84
2021/07/23 03:26:50;;;;;;;19.10;12.10;;;;;;;;;;6309277;22;20171;-85
2021/07/23 03:29:16;;;;;;;16.55;11.52;;;;;;;;;;6314318;22;20020;-85
2021/07/23 03:31:43;;;;;;;17.02;10.80;;;;;;;;;;6347258;22;20030;-85
2021/07/23 03:34:10;;;;;;;19.13;12.73;;;;;;;;;;6326515;22;20023;-85
2021/07/23 03:36:36;;;;;;;18.15;10.77;;;;;;;;;;6333459;22;20026;-85
2021/07/23 03:39:02;;;;;;;18.98;12.45;;;;;;;;;;6354827;22;20052;-85
2021/07/23 03:41:29;;;;;;;17.70;12.10;;;;;;;;;;6347788;22;20039;-85
2021/07/23 03:43:56;;;;;;;23.65;13.73;;;;;;;;;;6347039;22;20023;-86
2021/07/23 03:46:22;;;;;;;21.33;12.52;;;;;;;;;;6317959;22;20023;-86
2021/07/23 03:48:53;;;;;;;16.92;11.48;;;;;;;;;;6347185;22;20042;-86
2021/07/23 03:51:23;;;;;;;19.15;12.65;;;;;;;;;;6319444;22;20015;-86
2021/07/23 03:53:49;;;;;;;24.98;12.43;;;;;;;;;;6348220;22;20074;-85
2021/07/23 03:56:18;;;;;;;17.40;11.95;;;;;;;;;;6325746;22;20029;-86
2021/07/23 03:58:45;;;;;;;17.45;11.20;;;;;;;;;;6322852;22;20192;-84
2021/07/23 04:01:21;;;;;;;21.60;12.05;;;;;;;;;;6351343;22;20046;-86
2021/07/23 04:03:48;;;;;;;23.63;11.90;;;;;;;;;;6350497;22;20052;-86
2021/07/23 04:06:14;;;;;;;22.15;13.15;;;;;;;;;;6323483;22;20033;-85
2021/07/23 04:08:41;;;;;;;18.98;12.25;;;;;;;;;;6350662;22;20074;-86
2021/07/23 04:11:16;;;;;;;18.88;12.27;;;;;;;;;;6356871;22;20044;-86
2021/07/23 04:13:43;;;;;;;20.55;11.23;;;;;;;;;;6325912;22;20202;-84
2021/07/23 04:16:09;;;;;;;17.77;11.32;;;;;;;;;;6324381;22;20019;-84
2021/07/23 04:18:36;;;;;;;16.48;11.73;;;;;;;;;;6353090;22;20083;-85
2021/07/23 04:21:04;;;;;;;17.35;11.60;;;;;;;;;;6326900;22;20377;-85
2021/07/23 04:23:31;;;;;;;17.13;10.88;;;;;;;;;;6355550;22;20023;-84
2021/07/23 04:25:57;;;;;;;19.70;10.60;;;;;;;;;;6329319;22;20037;-85
2021/07/23 04:28:36;;;;;;;17.60;11.02;;;;;;;;;;6357066;22;20077;-85
2021/07/23 04:31:02;;;;;;;17.35;10.10;;;;;;;;;;6357991;22;20023;-85
2021/07/23 04:33:29;;;;;;;19.15;11.88;;;;;;;;;;6359514;22;20022;-85
2021/07/23 04:36:13;;;;;;;19.15;11.38;;;;;;;;;;6336316;22;20023;-85
2021/07/23 04:38:39;;;;;;;17.15;10.80;;;;;;;;;;6334225;22;20019;-86
2021/07/23 04:41:24;;;;;;;18.25;10.02;;;;;;;;;;6365913;22;20035;-86
2021/07/23 04:43:51;;;;;;;20.40;10.82;;;;;;;;;;6364604;22;20026;-86
2021/07/23 04:46:22;;;;;;;18.08;11.02;;;;;;;;;;6334105;22;20038;-85
2021/07/23 04:48:49;;;;;;;13.75;8.93;;;;;;;;;;6331059;22;20098;-86
2021/07/23 04:51:16;;;;;;;15.85;10.93;;;;;;;;;;6331485;22;20011;-85
2021/07/23 04:53:42;;;;;;;13.57;9.68;;;;;;;;;;6331570;22;20010;-86
2021/07/23 04:56:09;;;;;;;20.67;11.23;;;;;;;;;;6359254;22;20023;-85
2021/07/23 04:58:59;;;;;;;16.00;9.88;;;;;;;;;;6332859;22;20036;-85
2021/07/23 05:01:26;;;;;;;16.38;10.93;;;;;;;;;;6332031;22;20037;-84
2021/07/23 05:03:53;;;;;;;12.82;10.13;;;;;;;;;;6331167;22;20293;-84
2021/07/23 05:06:20;;;;;;;16.73;9.77;;;;;;;;;;6331537;22;20069;-85
2021/07/23 05:08:46;;;;;;;14.13;9.23;;;;;;;;;;6332161;22;20023;-85
2021/07/23 05:11:13;;;;;;;18.60;10.50;;;;;;;;;;6359356;22;20019;-85
2021/07/23 05:13:44;;;;;;;19.17;10.70;;;;;;;;;;6358905;22;20081;-85
2021/07/23 05:16:11;;;;;;;15.07;9.75;;;;;;;;;;6332009;22;20068;-85
2021/07/23 05:18:38;;;;;;;13.98;9.40;;;;;;;;;;6332007;22;20075;-86
2021/07/23 05:21:11;;;;;;;15.32;9.13;;;;;;;;;;6331723;22;20030;-86
2021/07/23 05:23:39;;;;;;;20.90;10.88;;;;;;;;;;6358265;22;20044;-85
2021/07/23 05:26:05;;;;;;;16.38;10.55;;;;;;;;;;6331839;22;20031;-86
2021/07/23 05:28:35;;;;;;;18.83;10.93;;;;;;;;;;6331399;22;20031;-85
2021/07/23 05:31:08;;;;;;;17.23;11.38;;;;;;;;;;6357786;22;20051;-85
2021/07/23 05:33:35;;;;;;;17.23;11.35;;;;;;;;;;6354309;22;20022;-85
2021/07/23 05:36:03;;;;;;;16.35;11.15;;;;;;;;;;6325787;22;20049;-85
2021/07/23 05:38:33;;;;;;;20.58;12.77;;;;;;;;;;6324212;22;20027;-86
2021/07/23 05:41:09;;;;;;;17.48;11.93;;;;;;;;;;6318860;22;20388;-85
2021/07/23 05:43:36;;;;;;;20.67;12.95;;;;;;;;;;6317020;22;20114;-85
2021/07/23 05:46:04;;;;;;;19.45;12.70;;;;;;;;;;6350478;22;20205;-85
2021/07/23 05:48:34;;;;;;;22.77;13.57;;;;;;;;;;6342535;22;20027;-85
2021/07/23 05:51:02;;;;;;;23.40;13.20;;;;;;;;;;6338293;22;20407;-85
2021/07/23 05:53:29;;;;;;;21.05;13.73;;;;;;;;;;6310841;22;20026;-85
2021/07/23 05:56:04;;;;;;;26.08;14.20;;;;;;;;;;6337310;22;20340;-85
2021/07/23 05:58:31;;;;;;;26.95;14.80;;;;;;;;;;6350186;22;20153;-84
2021/07/23 06:00:58;;;;;;;24.83;14.45;;;;;;;;;;6355668;22;20034;-85
2021/07/23 06:03:35;;;;;;;24.75;15.57;;;;;;;;;;6317567;22;20026;-86
2021/07/23 06:06:03;;;;;;;28.88;17.00;;;;;;;;;;6313129;22;20141;-84
2021/07/23 06:08:40;;;;;;;26.02;16.10;;;;;;;;;;6348018;22;20022;-85
2021/07/23 06:11:06;;;;;;;29.42;16.98;;;;;;;;;;6355902;22;20052;-84
2021/07/23 06:13:36;;;;;;;29.45;17.58;;;;;;;;;;6316431;22;20023;-86
2021/07/23 06:16:05;;;;;;;27.83;17.05;;;;;;;;;;6342417;22;20497;-85
2021/07/23 06:18:44;;;;;;;33.88;18.80;;;;;;;;;;6339670;22;20217;-85
2021/07/23 06:21:11;;;;;;;30.55;18.45;;;;;;;;;;6338625;22;20030;-86
2021/07/23 06:23:38;;;;;;;25.63;16.83;;;;;;;;;;6341766;22;20019;-86
2021/07/23 06:26:05;;;;;;;29.83;17.92;;;;;;;;;;6344524;22;20238;-86
2021/07/23 06:28:32;;;;;;;29.10;17.70;;;;;;;;;;6355996;22;20178;-83
2021/07/23 06:31:03;;;;;;;34.08;17.58;;;;;;;;;;6329240;22;20107;-84
2021/07/23 06:33:37;;;;;;;30.52;16.58;;;;;;;;;;6358527;22;20022;-85
2021/07/23 06:36:05;;;;;;;28.75;15.10;;;;;;;;;;6330829;22;20018;-85
2021/07/23 06:38:35;;;;;;;26.00;14.65;;;;;;;;;;6329696;22;20074;-84
2021/07/23 06:41:11;;;;;;;23.42;14.52;;;;;;;;;;6353281;22;20033;-84
2021/07/23 06:43:38;;;;;;;23.40;14.05;;;;;;;;;;6353653;22;20023;-85
2021/07/23 06:46:04;;;;;;;21.27;13.48;;;;;;;;;;6352463;22;20034;-85
2021/07/23 06:48:32;;;;;;;21.50;13.45;;;;;;;;;;6352873;22;20022;-87
2021/07/23 06:50:59;;;;;;;31.42;16.40;;;;;;;;;;6352420;22;20084;-85
2021/07/23 06:53:25;;;;;;;26.38;16.05;;;;;;;;;;6325474;22;20050;-84
2021/07/23 06:55:55;;;;;;;26.88;16.17;;;;;;;;;;6330157;22;20042;-84
2021/07/23 06:58:23;;;;;;;27.42;15.55;;;;;;;;;;6334719;22;20019;-85
2021/07/23 07:00:49;;;;;;;20.90;12.73;;;;;;;;;;6360799;22;20026;-85
2021/07/23 07:03:16;;;;;;;25.27;12.05;;;;;;;;;;6359703;22;20094;-86
2021/07/23 07:05:42;;;;;;;18.13;10.80;;;;;;;;;;6357788;22;20038;-86
2021/07/23 07:08:09;;;;;;;25.48;12.73;;;;;;;;;;6330063;22;20013;-84
2021/07/23 07:10:36;;;;;;;19.17;10.45;;;;;;;;;;6357141;22;20046;-85
2021/07/23 07:13:03;;;;;;;19.83;11.20;;;;;;;;;;6357211;22;20011;-86
2021/07/23 07:15:30;;;;;;;18.60;11.52;;;;;;;;;;6357566;22;20102;-85
2021/07/23 07:18:03;;;;;;;24.15;12.10;;;;;;;;;;6357724;22;20206;-85
2021/07/23 07:20:34;;;;;;;24.58;11.80;;;;;;;;;;6360747;22;20033;-84
2021/07/23 07:23:01;;;;;;;17.40;10.70;;;;;;;;;;6349856;22;20164;-83
2021/07/23 07:25:31;;;;;;;16.98;10.50;;;;;;;;;;6324141;22;20046;-83
2021/07/23 07:27:58;;;;;;;20.45;11.32;;;;;;;;;;6319588;22;20184;-84
2021/07/23 07:30:25;;;;;;;15.60;9.38;;;;;;;;;;6312124;22;20094;-84
2021/07/23 07:32:51;;;;;;;22.38;10.32;;;;;;;;;;6310824;22;20023;-83
2021/07/23 07:35:18;;;;;;;19.55;10.50;;;;;;;;;;6312226;22;20027;-84
2021/07/23 07:37:45;;;;;;;20.67;10.85;;;;;;;;;;6312333;22;20369;-83
2021/07/23 07:40:18;;;;;;;21.40;12.63;;;;;;;;;;6315034;22;20034;-83
2021/07/23 07:42:44;;;;;;;21.70;11.45;;;;;;;;;;6316177;22;20037;-83
2021/07/23 07:45:18;;;;;;;17.65;11.32;;;;;;;;;;6313492;22;20031;-84
2021/07/23 07:47:44;;;;;;;19.13;10.73;;;;;;;;;;6309771;22;20312;-83
2021/07/23 07:50:13;;;;;;;21.83;10.48;;;;;;;;;;6307647;22;20019;-84
2021/07/23 07:52:43;;;;;;;20.55;11.57;;;;;;;;;;6307222;22;20066;-83
2021/07/23 07:55:10;;;;;;;19.58;11.45;;;;;;;;;;6309010;22;20098;-83
2021/07/23 07:57:37;;;;;;;20.75;11.80;;;;;;;;;;6309081;22;20023;-83
2021/07/23 08:00:05;;;;;;;19.17;11.93;;;;;;;;;;6315083;22;20027;-84
2021/07/23 08:02:31;;;;;;;20.83;11.85;;;;;;;;;;6316701;22;20177;-84
2021/07/23 08:05:00;;;;;;;23.20;11.55;;;;;;;;;;6316360;22;20024;-84
2021/07/23 08:07:32;;;;;;;21.77;11.55;;;;;;;;;;6313436;22;20514;-83
2021/07/23 08:10:05;;;;;;;17.10;10.77;;;;;;;;;;6307896;22;20125;-83
2021/07/23 08:12:38;;;;;;;16.08;10.63;;;;;;;;;;6308061;22;20030;-85
2021/07/23 08:15:05;;;;;;;20.38;11.23;;;;;;;;;;6307568;22;20074;-83
2021/07/23 08:17:35;;;;;;;20.25;11.07;;;;;;;;;;6306387;22;20015;-83
2021/07/23 08:20:02;;;;;;;16.00;10.40;;;;;;;;;;6308125;22;20270;-84
2021/07/23 08:22:29;;;;;;;17.13;10.00;;;;;;;;;;6303089;22;20073;-83
2021/07/23 08:24:57;;;;;;;16.75;9.88;;;;;;;;;;6303640;22;20027;-84
2021/07/23 08:27:23;;;;;;;16.30;10.18;;;;;;;;;;6304127;22;20360;-83
2021/07/23 08:29:50;;;;;;;17.30;10.60;;;;;;;;;;6313879;22;20346;-82
2021/07/23 08:32:17;;;;;;;15.65;10.77;;;;;;;;;;6307013;22;20033;-83
2021/07/23 08:34:47;;;;;;;19.80;11.30;;;;;;;;;;6307687;22;20072;-84
2021/07/23 08:37:14;;;;;;;15.38;10.27;;;;;;;;;;6309854;22;20031;-83
2021/07/23 08:39:42;;;;;;;19.40;11.90;;;;;;;;;;6309451;22;20023;-84
2021/07/23 08:42:23;;;;;;;21.27;13.82;;;;;;;;;;6336226;22;20023;-84
2021/07/23 08:44:49;;;;;;;30.00;15.43;;;;;;;;;;6334742;22;20142;-84
2021/07/23 08:47:17;;;;;;;23.20;15.70;;;;;;;;;;6334674;22;20353;-84
2021/07/23 08:49:47;;;;;;;29.38;17.25;;;;;;;;;;6335026;22;20088;-83
2021/07/23 08:52:14;;;;;;;26.67;15.93;;;;;;;;;;6308478;22;20119;-84
2021/07/23 08:54:44;;;;;;;28.25;16.80;;;;;;;;;;6326477;22;20010;-84
2021/07/23 08:57:11;;;;;;;27.27;17.65;;;;;;;;;;6356522;22;20119;-84
2021/07/23 08:59:39;;;;;;;31.38;17.50;;;;;;;;;;6340421;22;20049;-84
2021/07/23 09:02:06;;;;;;;28.13;17.63;;;;;;;;;;6314662;22;20027;-84
2021/07/23 09:04:35;;;;;;;25.75;16.75;;;;;;;;;;6349487;22;20027;-83
2021/07/23 09:07:16;;;;;;;25.45;17.15;;;;;;;;;;6327522;22;20467;-85
2021/07/23 09:09:56;;;;;;;26.88;16.55;;;;;;;;;;6317237;22;20021;-84
2021/07/23 09:12:26;;;;;;;22.17;16.23;;;;;;;;;;6315737;22;20019;-86
2021/07/23 09:14:53;;;;;;;24.02;16.52;;;;;;;;;;6339965;22;20139;-84
2021/07/23 09:17:19;;;;;;;27.40;16.42;;;;;;;;;;6314228;22;20345;-84
2021/07/23 09:20:02;;;;;;;24.65;16.33;;;;;;;;;;6340276;22;20023;-84
2021/07/23 09:22:41;;;;;;;24.65;14.98;;;;;;;;;;6339719;22;20396;-85
2021/07/23 09:25:09;;;;;;;21.08;13.65;;;;;;;;;;6338183;22;20244;-84
2021/07/23 09:27:40;;;;;;;18.45;14.55;;;;;;;;;;6309965;22;20110;-84
2021/07/23 09:30:12;;;;;;;22.15;14.20;;;;;;;;;;6342834;22;20042;-85
2021/07/23 09:32:39;;;;;;;22.73;13.80;;;;;;;;;;6316712;22;20129;-85
2021/07/23 09:35:07;;;;;;;20.08;12.57;;;;;;;;;;6315812;22;20195;-85
2021/07/23 09:37:59;;;;;;;18.67;12.55;;;;;;;;;;6315738;22;20273;-84
2021/07/23 09:40:39;;;;;;;15.75;12.35;;;;;;;;;;6340109;22;20026;-85
2021/07/23 09:43:06;;;;;;;15.70;11.50;;;;;;;;;;6340265;22;20033;-85
2021/07/23 09:45:36;;;;;;;14.38;10.05;;;;;;;;;;6341973;22;20127;-84
2021/07/23 09:51:25;;;;;;;11.95;8.98;;;;;;;;;;6353832;22;20053;-85
2021/07/23 09:53:53;;;;;;;14.43;9.18;;;;;;;;;;6309271;22;20050;-85
2021/07/23 09:56:22;;;;;;;12.52;9.60;;;;;;;;;;6307220;22;20027;-85
2021/07/23 09:58:56;;;;;;;14.40;9.73;;;;;;;;;;6307400;22;20439;-84
2021/07/23 10:01:28;;;;;;;12.10;8.98;;;;;;;;;;6306608;22;20037;-84
2021/07/23 10:03:59;;;;;;;15.07;9.13;;;;;;;;;;6335061;22;20076;-84
2021/07/23 10:06:27;;;;;;;11.52;8.57;;;;;;;;;;6308525;22;20164;-85
2021/07/23 10:08:56;;;;;;;12.45;9.35;;;;;;;;;;6308790;22;20427;-85
2021/07/23 10:11:39;;;;;;;11.43;8.30;;;;;;;;;;6311998;22;20404;-85
2021/07/23 10:14:09;;;;;;;11.25;8.23;;;;;;;;;;6311560;22;20027;-85
2021/07/23 10:16:43;;;;;;;14.20;9.05;;;;;;;;;;6310325;22;20023;-85
2021/07/23 10:19:12;;;;;;;15.40;9.25;;;;;;;;;;6309236;22;20023;-85
2021/07/23 10:21:38;;;;;;;13.23;8.95;;;;;;;;;;6310686;22;20181;-84
2021/07/23 10:24:06;;;;;;;13.23;8.70;;;;;;;;;;6314324;22;20045;-85
2021/07/23 10:26:33;;;;;;;10.77;7.35;;;;;;;;;;6312283;22;20026;-85
2021/07/23 10:29:08;;;;;;;9.18;6.75;;;;;;;;;;6334786;22;20055;-84
2021/07/23 10:31:44;;;;;;;9.70;6.05;;;;;;;;;;6332579;22;20029;-84
2021/07/23 10:34:27;;;;;;;11.63;7.18;;;;;;;;;;6308932;22;20019;-84
2021/07/23 10:36:55;;;;;;;13.77;8.27;;;;;;;;;;6308166;22;20080;-84
2021/07/23 10:39:25;;;;;;;15.23;8.00;;;;;;;;;;6311538;22;20018;-85
2021/07/23 10:41:52;;;;;;;10.27;7.35;;;;;;;;;;6308006;22;20073;-85
2021/07/23 10:44:29;;;;;;;11.32;6.80;;;;;;;;;;6334220;22;20072;-83
2021/07/23 10:46:59;;;;;;;12.43;6.90;;;;;;;;;;6331524;22;20027;-83
2021/07/23 10:49:26;;;;;;;11.18;5.57;;;;;;;;;;6307580;22;20026;-83
2021/07/23 10:51:54;;;;;;;8.27;5.05;;;;;;;;;;6306264;22;20466;-84
2021/07/23 10:54:27;;;;;;;8.90;4.75;;;;;;;;;;6311916;22;20019;-85
2021/07/23 10:59:41;;;;;;;9.48;5.07;;;;;;;;;;6335856;22;20019;-84
2021/07/23 11:02:19;;;;;;;7.50;5.13;;;;;;;;;;6334183;22;20415;-84
2021/07/23 11:04:46;;;;;;;12.63;5.32;;;;;;;;;;6314069;22;20022;-85
2021/07/23 11:07:15;;;;;;;8.15;5.57;;;;;;;;;;6349587;22;20065;-85
2021/07/23 11:09:44;;;;;;;8.25;5.97;;;;;;;;;;6321004;22;20045;-84
2021/07/23 11:12:21;;;;;;;8.40;6.45;;;;;;;;;;6337911;22;20211;-85
2021/07/23 11:14:59;;;;;;;9.70;4.95;;;;;;;;;;6307489;22;20035;-83
2021/07/23 11:17:30;;;;;;;10.00;5.90;;;;;;;;;;6308559;22;20067;-85
2021/07/23 11:20:01;;;;;;;12.68;6.75;;;;;;;;;;6337693;22;20083;-84
2021/07/23 11:22:30;;;;;;;9.20;6.10;;;;;;;;;;6339506;22;20033;-83
2021/07/23 11:25:09;;;;;;;9.55;5.63;;;;;;;;;;6316286;22;20162;-85
2021/07/23 11:27:40;;;;;;;8.00;5.15;;;;;;;;;;6310564;22;20116;-85
2021/07/23 11:30:12;;;;;;;11.52;5.80;;;;;;;;;;6337803;22;20046;-84
2021/07/23 11:32:50;;;;;;;13.10;7.03;;;;;;;;;;6310413;22;20027;-84
2021/07/23 11:35:16;;;;;;;8.63;5.38;;;;;;;;;;6312287;22;20027;-84
2021/07/23 11:37:51;;;;;;;13.02;6.03;;;;;;;;;;6336329;22;20023;-84
2021/07/23 11:40:20;;;;;;;11.32;6.53;;;;;;;;;;6310782;22;20312;-85
2021/07/23 11:42:50;;;;;;;7.03;4.97;;;;;;;;;;6307567;22;20071;-83
2021/07/23 11:45:19;;;;;;;9.80;5.45;;;;;;;;;;6335716;22;20031;-83
2021/07/23 11:47:49;;;;;;;10.68;5.70;;;;;;;;;;6309089;22;20027;-83
2021/07/23 11:50:19;;;;;;;13.63;6.40;;;;;;;;;;6351801;22;20029;-84
2021/07/23 11:52:47;;;;;;;8.93;5.15;;;;;;;;;;6351429;22;20031;-84
2021/07/23 11:55:15;;;;;;;7.35;4.80;;;;;;;;;;6313286;22;20388;-83
2021/07/23 11:57:43;;;;;;;10.70;5.60;;;;;;;;;;6310019;22;20034;-84
2021/07/23 12:00:13;;;;;;;8.57;5.20;;;;;;;;;;6346055;22;20053;-84
2021/07/23 12:02:39;;;;;;;14.43;6.30;;;;;;;;;;6317891;22;20104;-84
2021/07/23 12:05:08;;;;;;;8.98;4.82;;;;;;;;;;6308876;22;20345;-85
2021/07/23 12:07:55;;;;;;;10.80;5.03;;;;;;;;;;6339372;22;20027;-84
2021/07/23 12:10:22;;;;;;;7.72;4.53;;;;;;;;;;6308831;22;20379;-84
2021/07/23 12:12:50;;;;;;;9.00;4.88;;;;;;;;;;6306373;22;20036;-84
2021/07/23 12:15:20;;;;;;;11.20;4.78;;;;;;;;;;6307263;22;20026;-83
2021/07/23 12:17:48;;;;;;;11.55;5.32;;;;;;;;;;6305866;22;20248;-84
2021/07/23 12:20:19;;;;;;;9.68;5.65;;;;;;;;;;6308998;22;20154;-84
2021/07/23 12:22:56;;;;;;;11.73;5.80;;;;;;;;;;6336368;22;20330;-84
2021/07/23 12:25:27;;;;;;;12.10;5.75;;;;;;;;;;6310637;22;20026;-84
2021/07/23 12:28:14;;;;;;;9.85;4.78;;;;;;;;;;6311628;22;20023;-83
2021/07/23 12:30:42;;;;;;;8.82;5.45;;;;;;;;;;6307404;22;20024;-84
2021/07/23 12:33:12;;;;;;;8.20;5.63;;;;;;;;;;6305954;22;20130;-85
2021/07/23 12:36:01;;;;;;;22.60;14.65;;;;;;;;;;6307520;22;20369;-85
2021/07/23 12:38:31;;;;;;;10.32;5.35;;;;;;;;;;6307713;22;20094;-83
2021/07/23 12:41:04;;;;;;;10.02;6.40;;;;;;;;;;6306885;22;20238;-84
2021/07/23 12:43:31;;;;;;;8.82;6.25;;;;;;;;;;6301988;22;20053;-83
2021/07/23 12:46:04;;;;;;;10.60;5.82;;;;;;;;;;6305358;22;20045;-83
2021/07/23 12:48:34;;;;;;;9.63;6.28;;;;;;;;;;6300512;22;20033;-82
2021/07/23 12:51:05;;;;;;;9.88;6.00;;;;;;;;;;6305282;22;20142;-84
2021/07/23 12:53:34;;;;;;;10.80;6.18;;;;;;;;;;6305671;22;20024;-83
2021/07/23 12:56:10;;;;;;;;;;;;;;;;;;6307019;22;20023;-83
2021/07/23 12:58:40;;;;;;;13.73;6.07;;;;;;;;;;6304688;22;19942;-83
2021/07/23 13:01:07;;;;;;;11.20;6.10;;;;;;;;;;6308602;22;20088;-84
2021/07/23 13:03:35;;;;;;;9.25;6.03;;;;;;;;;;6309624;22;20053;-84
2021/07/23 13:06:02;;;;;;;11.95;6.90;;;;;;;;;;6322549;22;20021;-84
2021/07/23 13:08:30;;;;;;;10.80;6.07;;;;;;;;;;6321715;22;20019;-84
2021/07/23 13:11:08;;;;;;;17.63;6.53;;;;;;;;;;6322677;22;20045;-83
2021/07/23 13:13:40;;;;;;;13.10;6.30;;;;;;;;;;6323164;22;20023;-83
2021/07/23 13:16:08;;;;;;;9.73;5.60;;;;;;;;;;6318806;22;20170;-82
2021/07/23 13:18:36;;;;;;;10.10;5.82;;;;;;;;;;6320151;22;20030;-83
2021/07/23 13:21:03;;;;;;;12.65;6.22;;;;;;;;;;6318156;22;20027;-83
2021/07/23 13:23:30;;;;;;;11.32;5.35;;;;;;;;;;6317413;22;20204;-83
2021/07/23 13:26:00;;;;;;;7.72;5.13;;;;;;;;;;6312946;22;20027;-83
2021/07/23 13:28:28;;;;;;;7.22;5.07;;;;;;;;;;6309354;22;20027;-84
2021/07/23 13:30:55;;;;;;;10.82;5.43;;;;;;;;;;6330398;22;20029;-84
2021/07/23 13:33:26;;;;;;;14.02;8.98;;;;;;;;;;6311386;22;20019;-84
2021/07/23 13:35:58;;;;;;;8.07;4.55;;;;;;;;;;6338046;22;20114;-84
2021/07/23 13:38:32;;;;;;;8.27;5.30;;;;;;;;;;6337449;22;20241;-84
2021/07/23 13:41:02;;;;;;;9.55;4.80;;;;;;;;;;6311899;22;20430;-85
2021/07/23 13:43:28;;;;;;;10.05;4.75;;;;;;;;;;6312429;22;20027;-85
2021/07/23 13:45:55;;;;;;;7.22;4.18;;;;;;;;;;6337675;22;20023;-84
2021/07/23 13:48:22;;;;;;;9.23;4.47;;;;;;;;;;6308023;22;20215;-85
2021/07/23 13:50:49;;;;;;;8.05;4.55;;;;;;;;;;6334742;22;20023;-83
2021/07/23 13:53:22;;;;;;;10.95;4.45;;;;;;;;;;6333032;22;20083;-83
2021/07/23 13:55:49;;;;;;;10.15;4.78;;;;;;;;;;6308816;22;20070;-84
2021/07/23 13:58:15;;;;;;;8.32;4.07;;;;;;;;;;6303730;22;20072;-84
2021/07/23 14:00:42;;;;;;;8.88;4.90;;;;;;;;;;6331624;22;20088;-84
2021/07/23 14:03:12;;;;;;;10.10;5.03;;;;;;;;;;6306640;22;20027;-85
2021/07/23 14:05:39;;;;;;;8.18;4.60;;;;;;;;;;6304387;22;20023;-84
2021/07/23 14:08:14;;;;;;;8.18;4.68;;;;;;;;;;6305881;22;20110;-85
2021/07/23 14:10:42;;;;;;;9.10;4.97;;;;;;;;;;6334716;22;20366;-84
2021/07/23 14:13:14;;;;;;;10.00;4.82;;;;;;;;;;6308633;22;20022;-84
2021/07/23 14:15:41;;;;;;;7.93;4.45;;;;;;;;;;6304922;22;20102;-84
2021/07/23 14:18:09;;;;;;;7.90;4.30;;;;;;;;;;6309875;22;20023;-84
2021/07/23 14:20:36;;;;;;;7.63;4.32;;;;;;;;;;6280733;22;20350;-83
2021/07/23 14:23:03;;;;;;;7.90;4.47;;;;;;;;;;6334791;22;20057;-83
2021/07/23 14:25:30;;;;;;;7.03;4.30;;;;;;;;;;6333172;22;20022;-84
2021/07/23 14:28:05;;;;;;;9.77;4.47;;;;;;;;;;6304591;22;20323;-84
2021/07/23 14:30:32;;;;;;;8.13;4.38;;;;;;;;;;6334609;22;20204;-83
2021/07/23 14:32:59;;;;;;;7.88;4.75;;;;;;;;;;6303190;22;20022;-84
2021/07/23 14:35:27;;;;;;;6.40;4.40;;;;;;;;;;6300955;22;20270;-83
2021/07/23 14:37:55;;;;;;;8.30;5.03;;;;;;;;;;6313801;22;20019;-84
2021/07/23 14:40:24;;;;;;;9.18;4.60;;;;;;;;;;6347917;22;20027;-85
2021/07/23 14:42:50;;;;;;;7.43;4.25;;;;;;;;;;6349651;22;20030;-84
2021/07/23 14:45:17;;;;;;;10.90;4.53;;;;;;;;;;6349473;22;20199;-83